createdAt,value
2023-11-12T07:43:13.704Z,1.18
2023-11-12T07:45:41.000Z,1.21
2023-11-12T07:48:08.144Z,5.80
2023-11-12T07:50:35.165Z,4.64
2023-11-12T07:53:02.160Z,1.41
2023-11-12T07:55:30.670Z,1.72
2023-11-12T07:57:58.808Z,1.25
2023-11-12T08:00:25.846Z,0.97
2023-11-12T08:02:52.825Z,0.77
2023-11-12T08:05:19.842Z,0.69
2023-11-12T08:07:46.821Z,0.55
2023-11-12T08:10:13.768Z,0.59
2023-11-12T08:12:40.933Z,0.66
2023-11-12T08:15:07.866Z,0.69
2023-11-12T08:17:34.848Z,0.86
2023-11-12T08:20:01.895Z,2.66
2023-11-12T08:22:28.838Z,1.43
2023-11-12T08:24:55.988Z,0.78
2023-11-12T08:27:23.203Z,0.58
2023-11-12T08:29:50.250Z,0.52
2023-11-12T08:32:17.545Z,0.48
2023-11-12T08:34:44.610Z,0.46
2023-11-12T08:37:11.672Z,0.48
2023-11-12T08:39:38.823Z,0.59
2023-11-12T08:42:05.855Z,0.50
2023-11-12T08:44:32.828Z,0.58
2023-11-12T08:46:59.971Z,0.50
2023-11-12T08:49:27.043Z,0.49
2023-11-12T08:51:54.098Z,0.49
2023-11-12T08:54:21.392Z,0.84
2023-11-12T08:56:49.603Z,0.77
2023-11-12T08:59:16.578Z,3.19
2023-11-12T09:01:43.627Z,2.58
2023-11-12T09:04:10.953Z,2.58
2023-11-12T09:06:38.019Z,1.71
2023-11-12T09:09:04.999Z,0.69
2023-11-12T09:11:32.321Z,0.62
2023-11-12T09:16:35.881Z,0.69
2023-11-12T14:26:29.072Z,1.10
2023-11-12T14:28:56.137Z,1.08
2023-11-12T14:31:23.216Z,1.12
2023-11-12T14:33:50.401Z,1.30
2023-11-12T14:36:17.575Z,1.07
2023-11-12T14:38:44.520Z,1.19
2023-11-12T14:41:11.633Z,1.19
2023-11-12T14:43:38.937Z,1.30
2023-11-12T14:46:06.202Z,1.33
2023-11-12T14:48:33.249Z,1.30
2023-11-12T14:51:00.620Z,3.13
2023-11-12T18:54:25.670Z,4.10
2023-11-12T18:56:52.797Z,3.69
2023-11-12T19:02:09.790Z,3.35
2023-11-12T19:07:21.043Z,5.94
2023-11-12T19:09:57.372Z,4.18
2023-11-12T21:14:02.060Z,2.54
2023-11-12T21:16:30.329Z,2.40
2023-11-12T21:18:57.874Z,2.20
2023-11-12T21:21:25.018Z,2.56
2023-11-12T21:23:52.070Z,2.36
2023-11-12T21:26:19.058Z,2.47
2023-11-12T21:28:46.144Z,2.09
2023-11-12T21:31:13.232Z,1.81
2023-11-12T21:33:40.224Z,1.93
2023-11-12T21:36:07.386Z,1.77
2023-11-12T21:38:34.400Z,1.99
2023-11-12T21:41:01.628Z,1.99
2023-11-12T21:43:28.670Z,2.08
2023-11-12T21:45:55.830Z,2.00
2023-11-12T21:48:22.999Z,2.11
2023-11-12T21:50:50.105Z,2.27
2023-11-12T21:53:17.113Z,2.03
2023-11-12T21:55:44.082Z,1.81
2023-11-12T21:58:11.194Z,1.80
2023-11-12T22:00:38.291Z,1.79
2023-11-12T22:03:08.781Z,1.77
2023-11-12T22:05:50.582Z,1.59
2023-11-12T22:08:17.563Z,1.62
2023-11-12T22:10:44.634Z,1.62
2023-11-12T22:13:11.856Z,1.49
2023-11-12T22:15:40.209Z,1.48
2023-11-12T22:18:21.806Z,1.45
2023-11-12T22:20:48.861Z,1.40
2023-11-12T22:23:15.859Z,1.26
2023-11-12T22:25:42.949Z,1.29
2023-11-12T22:28:10.207Z,1.25
2023-11-12T22:30:37.119Z,1.26
2023-11-12T22:33:03.976Z,1.30
2023-11-12T22:35:30.891Z,1.18
2023-11-12T22:37:57.936Z,1.22
2023-11-12T22:40:24.893Z,1.21
2023-11-12T22:42:51.986Z,1.25
2023-11-12T22:45:18.767Z,1.20
2023-11-12T22:50:48.548Z,1.27
2023-11-12T22:53:15.442Z,1.27
2023-11-12T22:55:42.346Z,1.09
2023-11-12T22:58:09.167Z,1.26
2023-11-12T23:00:42.408Z,1.16
2023-11-12T23:03:10.815Z,1.18
2023-11-12T23:05:37.737Z,1.20
2023-11-12T23:08:04.673Z,1.06
2023-11-12T23:10:31.417Z,1.14
2023-11-12T23:12:58.391Z,0.98
